Panamint Springs, California
Current Conditions -  °F | °C
As of 1:56 PM on Monday 22 Dec 2014 (Local Time) from KBIH Reporting Station
Clear Clear  
Wind Chill: 74°   Ceiling: Unl
Heat Index: 74°   Visibility: 10mi
Dew Point: 27°   Wind: 21mph
Humidity: 18%   Direction: 350°N
Pressure: 30.09"   Gusts: 33mph
Location:  36.6126°N, 118.162°W
Report Text: KBIH 222156Z AUTO 35018G29KT 10SM CLR 23/M03 A3009 RMK AO2 PK WND 36029/2151 SLP156 T02331028
Loading
Personal Weather Stations






























Interactive Weather Map New forecast layout! Learn more

10-Day Weather Forecast

Advertisements
Track Severe Weather on mobile